Flight Track Log - Related Links

Times and Time Zones

All times are in EDT time to prevent confusion due to time zone crossing. See the HPJ65 flight status page for this flight to view local times or setup timezone preferences in your user account.

Time Position Orientation Groundspeed Altitude Reporting Facility
EDT Latitude Longitude Course Direction KTS MPH feet Rate Location/Type
Sun 07:12:39 PM 30.2406 -84.2533 143° Southeast 256 295 11,800  Level Jacksonville Center
Sun 07:13:39 PM 30.1681 -84.1900 143° Southeast 295 339 14,800 2,700 Climbing Jacksonville Center
Sun 07:14:39 PM 30.0789 -84.1167 145° Southeast 349 402 17,200 2,450 Climbing Jacksonville Center
Sun 07:15:39 PM 29.9817 -84.0339 144° Southeast 405 466 19,700 2,300 Climbing Jacksonville Center
Sun 07:16:00 PM 30.1506 -84.1126 151° Southeast  Level FlightAware Approximate
Sun 07:16:39 PM 29.8822 -83.9489 143° Southeast 436 502 21,800  Level Jacksonville Center
Sun 07:17:39 PM 29.7764 -83.8664 146° Southeast 450 518 24,300 2,500 Climbing Jacksonville Center
Sun 07:18:39 PM 29.6642 -83.7936 151° Southeast 456 525 26,800 2,500 Climbing Jacksonville Center
Sun 07:19:39 PM 29.5497 -83.7208 151° Southeast 467 537 29,300 2,450 Climbing Jacksonville Center
Sun 07:20:39 PM 29.4375 -83.6508 151° Southeast 467 537 31,700 1,800 Climbing Jacksonville Center
Sun 07:21:39 PM 29.3253 -83.5786 151° Southeast 467 537 32,900 650 Climbing Jacksonville Center
Sun 07:22:39 PM 29.2086 -83.5064 152° Southeast 467 537 33,000 50 Climbing Jacksonville Center
Sun 07:23:39 PM 29.0964 -83.4319 150° Southeast 467 537 33,000  Level Jacksonville Center
Sun 07:24:39 PM 28.9817 -83.3578 151° Southeast 467 537 33,000  Level Jacksonville Center
Sun 07:25:39 PM 28.8589 -83.2647 146° Southeast 482 555 33,000  Level Jacksonville Center
Sun 07:26:39 PM 28.7506 -83.1744 144° Southeast 487 560 33,000  Level Jacksonville Center
Sun 07:28:39 PM 28.5358 -82.9942 144° Southeast 487 560 33,000  Level Jacksonville Center
Sun 07:29:39 PM 28.4294 -82.9044 143° Southeast 487 560 33,000  Level Jacksonville Center
Sun 07:30:39 PM 28.3189 -82.8125 144° Southeast 487 560 33,000  Level Jacksonville Center
Sun 07:32:58 PM 28.0808 -82.6167 144° Southeast 489 563 33,000  Level Miami Center
Sun 07:33:58 PM 27.9719 -82.5219 142° Southeast 494 568 33,000  Level Miami Center
Sun 07:34:58 PM 27.8511 -82.4689 159° South 474 545 33,000  Level Miami Center
Sun 07:35:58 PM 27.7153 -82.4200 162° South 465 535 33,000 -650 Level Miami Center
Sun 07:36:58 PM 27.5914 -82.3858 166° South 460 529 31,700 -1,250 Descending Miami Center
Sun 07:37:58 PM 27.4714 -82.4106 190° South 444 511 30,500 -1,200 Descending Miami Center
Sun 07:38:58 PM 27.3600 -82.4333 190° South 449 517 29,300 -750 Descending Miami Center
Sun 07:39:58 PM 27.2422 -82.4603 191° South 449 517 29,000 -250 Descending Miami Center
Sun 07:40:58 PM 27.1211 -82.4592 180° South 455 524 28,800 -750 Descending Miami Center
Sun 07:41:58 PM 27.0267 -82.3636 138° Southeast 407 468 27,500 -1,500 Descending Miami Center
Sun 07:42:58 PM 26.9478 -82.2433 126° Southeast 414 476 25,800 -1,650 Descending Miami Center
Sun 07:43:58 PM 26.8786 -82.1356 126° Southeast 419 482 24,200 -900 Descending Miami Center
Sun 07:44:58 PM 26.8094 -82.0300 126° Southeast 424 488 24,000 -100 Descending Miami Center
Sun 07:45:58 PM 26.7400 -81.9269 127° Southeast 419 482 24,000  Level Miami Center
Sun 07:46:58 PM 26.6664 -81.8169 127° Southeast 426 490 24,000 -750 Level Miami Center
Sun 07:47:58 PM 26.5911 -81.7000 126° Southeast 449 517 22,500 -1,800 Descending Miami Center
Sun 07:48:58 PM 26.5256 -81.5975 126° Southeast 454 522 20,400 -2,267 Descending Miami Center
Sun 07:50:00 PM 26.5007 -81.4627 134° Southeast  Level FlightAware Approximate
Sun 07:50:58 PM 26.3681 -81.3617 134° Southeast 462 532 15,700  Level Miami Center
Sun 07:51:58 PM 26.3061 -81.2692 127° Southeast 419 482 13,900 -1,800 Descending Miami Center
Sun 07:52:58 PM 26.2483 -81.1836 127° Southeast 383 441 12,100 -1,725 Descending Miami Center
Sun 07:53:18 PM 26.2239 -81.1550 134° Southeast 350 403 11,600 -1,800 Descending Miami Center
Sun 07:53:48 PM 26.1939 -81.1122 128° Southeast 343 395 10,600 -1,608 Descending Miami Center
Sun 07:54:55 PM 26.1400 -81.0269 125° Southeast 281 323 9,000 -1,219 Descending Miami Center
Sun 07:55:56 PM 26.1006 -80.9447 118° Southeast 305 351 8,000 -1,122 Descending Miami Center
Sun 07:56:58 PM 26.1342 -80.8603 66° East 258 297 6,700 -1,770 Descending Miami Center
Sun 07:57:58 PM 26.1636 -80.7803 68° East 258 297 4,400 -1,218 Descending Miami Center
Sun 07:59:11 PM 26.1869 -80.6836 75° East 273 314 4,000 -400 Descending Miami Center
Sun 07:59:58 PM 26.2033 -80.6194 74° East 264 304 3,600 -545 Descending Miami Center
Sun 08:01:01 PM 26.2181 -80.5342 79° East 278 320 3,000 -300 Descending Miami Center
Sun 08:01:58 PM 26.2364 -80.4700 72° East 269 310 3,000  Level Miami Center
Sun 08:02:58 PM 26.2550 -80.3825 77° East 269 310 3,000  Level Miami Center
Sun 08:03:14 PM 26.2578 -80.3547 84° East 270 311 3,000  Level Miami Center
Sun 08:04:15 PM 26.2639 -80.2717 85° East 269 310 3,000  Level Miami Center
Sun 08:05:10 PM 26.2700 -80.1953 85° East 267 307 3,000 -103 Level Miami Center
Sun 08:06:11 PM 26.2694 -80.1303 91° East 188 216 2,800 -639 Descending Miami Center
Sun 08:07:12 PM 26.2197 -80.1083 158° South 180 207 1,700 -1,131 Descending Miami Center
Sun 08:08:13 PM 26.2003 -80.1400 236° Southwest 137 158 500 -1,180 Descending Miami Center
Sun 08:10:00 PM 26.1833 -80.1667 241° Southwest  Level FlightAware Approximate
Sun 08:17:00 PM 26.1973 -80.1707 241° Southwest  Level Estimated

Login

Don't have an account? Register now (free) for customized features, flight alerts, and more!